Ballerup, Denmark
Current Conditions -  °F | °C
As of 4:50 PM on Wednesday 28 Jan 2015 (Local Time) from EKRK Reporting Station
Light Rain Light Rain  
Wind Chill: 27°   Ceiling: 900
Heat Index: 37°   Visibility: 2.1mi
Dew Point: 37°   Wind: 18mph
Humidity: 100%   Direction: 180°S
Pressure: 29.21"   Gusts: NA
Location:  55.73°N, 12.36°E
Report Text: EKRK 281550Z AUTO 18016KT 3500NDV -RA BR FEW005/// SCT007///BKN009/// OVC011/// 03/03 Q0989
Loading
Personal Weather Stations






























Interactive Weather Map New forecast layout! Learn more

10-Day Weather Forecast

Advertisements
Track Severe Weather on mobile